createdAt,value
2024-01-07T00:00:43.876Z,16.30
2024-01-07T00:01:43.913Z,18.70
2024-01-07T00:02:43.862Z,18.10
2024-01-07T00:03:44.025Z,16.50
2024-01-07T00:04:43.903Z,15.60
2024-01-07T00:05:43.803Z,17.60
2024-01-07T00:06:43.976Z,22.50
2024-01-07T00:07:43.745Z,18.60
2024-01-07T00:08:43.936Z,19.80
2024-01-07T00:09:43.736Z,16.60
2024-01-07T00:10:44.000Z,15.80
2024-01-07T00:11:43.684Z,16.50
2024-01-07T00:12:43.811Z,20.30
2024-01-07T00:13:43.660Z,18.50
2024-01-07T00:14:43.884Z,18.40
2024-01-07T00:15:43.633Z,17.00
2024-01-07T00:16:43.901Z,19.60
2024-01-07T00:17:43.729Z,15.10
2024-01-07T00:18:43.938Z,18.70
2024-01-07T00:19:43.601Z,17.10
2024-01-07T00:20:45.486Z,18.30
2024-01-07T00:21:43.625Z,15.40
2024-01-07T00:22:43.737Z,15.70
2024-01-07T00:23:43.578Z,14.50
2024-01-07T00:24:43.589Z,16.30
2024-01-07T00:25:50.492Z,17.60
2024-01-07T00:26:43.508Z,18.10
2024-01-07T00:27:43.618Z,19.00
2024-01-07T00:28:43.480Z,23.50
2024-01-07T00:29:43.608Z,20.50
2024-01-07T00:30:43.548Z,22.20
2024-01-07T00:31:43.701Z,16.50
2024-01-07T00:32:43.465Z,15.90
2024-01-07T00:33:43.741Z,20.10
2024-01-07T00:34:43.674Z,18.00
2024-01-07T00:35:43.585Z,17.00
2024-01-07T00:36:43.533Z,19.00
2024-01-07T00:37:43.321Z,16.00
2024-01-07T00:38:43.420Z,20.80
2024-01-07T00:39:43.528Z,17.90
2024-01-07T00:40:43.467Z,18.40
2024-01-07T00:41:43.287Z,22.80
2024-01-07T00:42:43.659Z,21.10
2024-01-07T00:43:43.329Z,17.30
2024-01-07T00:44:43.521Z,19.60
2024-01-07T00:45:43.274Z,23.30
2024-01-07T00:46:44.973Z,17.30
2024-01-07T00:47:43.379Z,21.00
2024-01-07T00:48:43.380Z,17.30
2024-01-07T00:49:43.357Z,16.40
2024-01-07T00:50:43.184Z,14.10
2024-01-07T00:51:43.425Z,18.50
2024-01-07T00:52:43.452Z,15.70
2024-01-07T00:53:43.108Z,15.50
2024-01-07T00:54:43.353Z,18.30
2024-01-07T00:55:43.089Z,16.50
2024-01-07T00:56:43.272Z,20.70
2024-01-07T00:57:43.113Z,14.20
2024-01-07T00:58:43.316Z,16.90
2024-01-07T00:59:43.038Z,17.20
2024-01-07T01:00:43.358Z,21.00
2024-01-07T01:01:43.140Z,16.60
2024-01-07T01:02:43.308Z,15.10
2024-01-07T01:03:43.089Z,16.40
2024-01-07T01:04:43.376Z,15.60
2024-01-07T01:05:43.072Z,13.30
2024-01-07T01:06:43.372Z,17.20
2024-01-07T01:07:49.031Z,12.70
2024-01-07T01:08:43.027Z,13.40
2024-01-07T01:09:43.990Z,16.00
2024-01-07T01:10:43.084Z,14.60
2024-01-07T01:11:42.884Z,14.60
2024-01-07T01:12:43.216Z,16.80
2024-01-07T01:13:42.901Z,16.50
2024-01-07T01:14:42.986Z,18.90
2024-01-07T01:15:42.966Z,15.40
2024-01-07T01:16:43.121Z,16.20
2024-01-07T01:17:43.008Z,16.70
2024-01-07T01:18:43.123Z,16.70
2024-01-07T01:19:42.965Z,14.60
2024-01-07T01:20:42.984Z,16.10
2024-01-07T01:21:42.865Z,16.00
2024-01-07T01:22:43.036Z,15.40
2024-01-07T01:23:42.833Z,20.30
2024-01-07T01:24:42.908Z,16.40
2024-01-07T01:25:42.767Z,17.80
2024-01-07T01:26:42.867Z,18.60
2024-01-07T01:27:42.737Z,21.60
2024-01-07T01:28:42.923Z,14.80
2024-01-07T01:29:42.686Z,16.80
2024-01-07T01:30:43.087Z,14.60
2024-01-07T01:31:43.007Z,17.70
2024-01-07T01:32:43.089Z,22.10
2024-01-07T01:33:42.795Z,18.30
2024-01-07T01:34:42.854Z,17.20
2024-01-07T01:35:42.931Z,16.90
2024-01-07T01:36:42.729Z,14.00
2024-01-07T01:37:42.742Z,14.00
2024-01-07T01:38:42.568Z,11.50
2024-01-07T01:39:42.969Z,14.00
2024-01-07T01:40:42.801Z,18.40
2024-01-07T01:41:42.595Z,17.40
2024-01-07T01:42:42.859Z,16.30
2024-01-07T01:43:42.528Z,17.00
2024-01-07T01:44:42.791Z,16.10
2024-01-07T01:45:42.544Z,14.20
2024-01-07T01:46:42.572Z,16.20
2024-01-07T01:47:42.544Z,15.60
2024-01-07T01:48:42.738Z,15.00
2024-01-07T01:49:42.580Z,14.90
2024-01-07T01:50:42.558Z,17.10
2024-01-07T01:51:42.486Z,14.00
2024-01-07T01:52:42.585Z,20.30
2024-01-07T01:53:42.370Z,14.10
2024-01-07T01:54:42.607Z,18.00
2024-01-07T01:55:42.357Z,22.70
2024-01-07T01:56:42.430Z,25.10
2024-01-07T01:57:42.397Z,29.10
2024-01-07T01:58:42.538Z,30.10
2024-01-07T01:59:42.386Z,23.40
2024-01-07T02:00:42.465Z,20.90
2024-01-07T02:01:42.450Z,20.60
2024-01-07T02:02:42.557Z,17.70
2024-01-07T02:03:42.292Z,18.70
2024-01-07T02:04:42.545Z,14.70
2024-01-07T02:05:42.227Z,14.70
2024-01-07T02:06:42.316Z,20.30
2024-01-07T02:07:42.344Z,22.70
2024-01-07T02:08:42.387Z,21.30
2024-01-07T02:09:42.244Z,21.30
2024-01-07T02:10:43.349Z,16.40
2024-01-07T02:11:42.178Z,16.30
2024-01-07T02:12:42.386Z,12.90
2024-01-07T02:13:42.210Z,14.60
2024-01-07T02:14:42.470Z,15.30
2024-01-07T02:15:42.234Z,14.30
2024-01-07T02:16:42.398Z,14.50
2024-01-07T02:17:42.136Z,14.40
2024-01-07T02:18:42.289Z,12.60
2024-01-07T02:19:42.192Z,15.60
2024-01-07T02:20:42.329Z,17.10
2024-01-07T02:21:42.121Z,26.50
2024-01-07T02:22:42.155Z,21.90
2024-01-07T02:23:42.009Z,20.80
2024-01-07T02:24:42.191Z,22.00
2024-01-07T02:25:42.090Z,14.80
2024-01-07T02:26:42.148Z,20.80
2024-01-07T02:27:42.011Z,16.70
2024-01-07T02:28:42.141Z,17.40
2024-01-07T02:29:41.967Z,14.80
2024-01-07T02:30:42.212Z,15.50
2024-01-07T02:31:42.010Z,15.40
2024-01-07T02:32:42.173Z,17.80
2024-01-07T02:33:42.175Z,14.90
2024-01-07T02:34:42.110Z,15.70
2024-01-07T02:35:41.864Z,21.70
2024-01-07T02:36:42.148Z,14.80
2024-01-07T02:37:41.843Z,15.30
2024-01-07T02:38:41.957Z,15.40
2024-01-07T02:39:42.780Z,13.50
2024-01-07T02:40:41.862Z,13.90
2024-01-07T02:41:42.012Z,14.10
2024-01-07T02:42:41.759Z,16.10
2024-01-07T02:43:41.975Z,13.70
2024-01-07T02:44:41.997Z,15.90
2024-01-07T02:45:41.800Z,15.80
2024-01-07T02:46:41.832Z,13.70
2024-01-07T02:47:41.757Z,15.00
2024-01-07T02:48:41.943Z,14.70
2024-01-07T02:49:42.616Z,13.10
2024-01-07T02:50:41.820Z,16.50
2024-01-07T02:51:41.685Z,14.20
2024-01-07T02:52:41.836Z,12.70
2024-01-07T02:53:41.652Z,16.70
2024-01-07T02:54:41.960Z,14.30
2024-01-07T02:55:41.583Z,18.20
2024-01-07T02:56:41.756Z,14.60
2024-01-07T02:57:41.610Z,14.40
2024-01-07T02:58:41.721Z,16.50
2024-01-07T02:59:41.528Z,16.40
2024-01-07T03:00:41.827Z,17.30
2024-01-07T03:01:41.772Z,12.40
2024-01-07T03:02:41.637Z,13.00
2024-01-07T03:03:41.548Z,14.70
2024-01-07T03:04:41.673Z,13.90
2024-01-07T03:05:41.482Z,12.90
2024-01-07T03:06:41.703Z,14.90
2024-01-07T03:07:41.434Z,17.80
2024-01-07T03:08:41.502Z,14.00
2024-01-07T03:09:41.461Z,18.90
2024-01-07T03:10:41.554Z,15.50
2024-01-07T03:11:41.565Z,19.30
2024-01-07T03:12:41.388Z,14.80
2024-01-07T03:13:41.590Z,12.60
2024-01-07T03:14:41.364Z,13.40
2024-01-07T03:15:41.612Z,16.10
2024-01-07T03:16:41.616Z,18.50
2024-01-07T03:17:41.435Z,14.00
2024-01-07T03:18:41.597Z,14.40
2024-01-07T03:19:41.327Z,12.70
2024-01-07T03:20:41.370Z,15.90
2024-01-07T03:21:41.290Z,13.50
2024-01-07T03:22:41.449Z,16.50
2024-01-07T03:23:41.231Z,13.30
2024-01-07T03:24:41.326Z,14.10
2024-01-07T03:25:41.228Z,15.40
2024-01-07T03:26:41.358Z,17.50
2024-01-07T03:27:41.200Z,16.40
2024-01-07T03:28:41.344Z,12.40
2024-01-07T03:29:41.169Z,13.70
2024-01-07T03:30:41.414Z,16.10
2024-01-07T03:31:41.171Z,15.60
2024-01-07T03:32:41.443Z,14.60
2024-01-07T03:33:41.234Z,16.40
2024-01-07T03:34:41.344Z,12.90
2024-01-07T03:35:41.105Z,13.90
2024-01-07T03:36:41.314Z,14.00
2024-01-07T03:37:41.075Z,16.60
2024-01-07T03:38:41.145Z,14.30
2024-01-07T03:39:41.061Z,14.40
2024-01-07T03:40:41.100Z,18.80
2024-01-07T03:41:41.021Z,15.50
2024-01-07T03:42:41.253Z,14.50
2024-01-07T03:43:41.022Z,14.70
2024-01-07T03:44:41.149Z,12.70
2024-01-07T03:45:40.985Z,15.20
2024-01-07T03:46:41.057Z,14.50
2024-01-07T03:47:41.146Z,13.30
2024-01-07T03:48:41.260Z,14.20
2024-01-07T03:49:41.021Z,11.10
2024-01-07T03:50:41.083Z,12.50
2024-01-07T03:51:40.951Z,16.70
2024-01-07T03:52:41.097Z,14.80
2024-01-07T03:53:40.907Z,13.80
2024-01-07T03:54:40.926Z,16.10
2024-01-07T03:55:40.827Z,12.90
2024-01-07T03:56:40.941Z,11.00
2024-01-07T03:57:40.820Z,13.10
2024-01-07T03:58:41.066Z,14.60
2024-01-07T03:59:40.785Z,18.60
2024-01-07T04:00:40.912Z,14.40
2024-01-07T04:01:40.916Z,16.00
2024-01-07T04:02:40.859Z,11.20
2024-01-07T04:03:40.793Z,13.20
2024-01-07T04:04:40.914Z,13.90
2024-01-07T04:05:40.825Z,12.70
2024-01-07T04:06:40.926Z,13.60
2024-01-07T04:07:40.666Z,14.50
2024-01-07T04:08:40.951Z,17.90
2024-01-07T04:09:40.735Z,14.20
2024-01-07T04:10:40.688Z,14.00
2024-01-07T04:11:40.658Z,18.30
2024-01-07T04:12:40.773Z,13.50
2024-01-07T04:13:40.609Z,12.80
2024-01-07T04:14:40.745Z,17.00
2024-01-07T04:15:40.581Z,14.70
2024-01-07T04:16:40.795Z,12.20
2024-01-07T04:17:40.625Z,13.60
2024-01-07T04:18:40.792Z,12.70
2024-01-07T04:19:40.573Z,13.90
2024-01-07T04:20:40.676Z,14.40
2024-01-07T04:21:40.552Z,14.70
2024-01-07T04:22:40.693Z,14.70
2024-01-07T04:23:40.472Z,16.10
2024-01-07T04:24:40.632Z,23.10
2024-01-07T04:25:40.629Z,13.20
2024-01-07T04:26:40.412Z,15.40
2024-01-07T04:27:40.751Z,13.90
2024-01-07T04:28:40.398Z,17.40
2024-01-07T04:29:40.658Z,16.10
2024-01-07T04:30:40.438Z,14.20
2024-01-07T04:31:40.567Z,15.20
2024-01-07T04:32:40.380Z,17.20
2024-01-07T04:33:40.625Z,10.90
2024-01-07T04:34:40.437Z,11.20
2024-01-07T04:35:40.481Z,15.30
2024-01-07T04:36:40.496Z,16.00
2024-01-07T04:37:40.395Z,17.10
2024-01-07T04:38:40.488Z,11.40
2024-01-07T04:39:40.287Z,17.00
2024-01-07T04:40:40.502Z,14.10
2024-01-07T04:41:40.386Z,16.30
2024-01-07T04:42:40.241Z,13.20
2024-01-07T04:43:40.403Z,13.80
2024-01-07T04:44:40.270Z,15.70
2024-01-07T04:45:40.528Z,15.70
2024-01-07T04:46:40.187Z,12.80
2024-01-07T04:47:40.338Z,15.50
2024-01-07T04:48:40.416Z,14.70
2024-01-07T04:49:40.375Z,16.30
2024-01-07T04:50:40.118Z,13.20
2024-01-07T04:51:40.352Z,17.00
2024-01-07T04:52:40.079Z,12.80
2024-01-07T04:53:40.344Z,14.50
2024-01-07T04:54:40.080Z,12.40
2024-01-07T04:55:40.381Z,14.20
2024-01-07T04:56:40.065Z,14.40
2024-01-07T04:57:40.260Z,15.30
2024-01-07T04:58:40.018Z,12.30
2024-01-07T04:59:40.326Z,15.40
2024-01-07T05:00:40.143Z,13.30
2024-01-07T05:01:40.162Z,13.60
2024-01-07T05:02:40.053Z,13.20
2024-01-07T05:03:40.221Z,12.20
2024-01-07T05:04:40.039Z,10.80
2024-01-07T05:05:40.238Z,12.40
2024-01-07T05:06:40.012Z,12.50
2024-01-07T05:07:40.050Z,12.00
2024-01-07T05:08:39.902Z,11.20
2024-01-07T05:09:40.055Z,10.90
2024-01-07T05:10:39.896Z,12.90
2024-01-07T05:11:40.033Z,15.00
2024-01-07T05:12:39.862Z,12.30
2024-01-07T05:13:40.070Z,10.10
2024-01-07T05:14:39.834Z,11.90
2024-01-07T05:15:41.149Z,13.00
2024-01-07T05:16:39.836Z,10.70
2024-01-07T05:17:39.968Z,10.80
2024-01-07T05:18:39.891Z,17.10
2024-01-07T05:19:39.963Z,8.80
2024-01-07T05:20:39.765Z,12.90
2024-01-07T05:21:40.976Z,11.90
2024-01-07T05:22:39.721Z,10.80
2024-01-07T05:23:39.907Z,16.60
2024-01-07T05:24:39.727Z,13.20
2024-01-07T05:25:39.895Z,13.40
2024-01-07T05:26:39.650Z,12.80
2024-01-07T05:27:39.981Z,11.20
2024-01-07T05:28:39.669Z,12.80
2024-01-07T05:29:39.892Z,12.50
2024-01-07T05:30:39.673Z,10.70
2024-01-07T05:31:39.989Z,9.60
2024-01-07T05:32:39.711Z,10.20
2024-01-07T05:33:39.894Z,12.60
2024-01-07T05:34:39.632Z,12.70
2024-01-07T05:35:39.686Z,10.50
2024-01-07T05:36:39.595Z,10.20
2024-01-07T05:37:39.692Z,13.00
2024-01-07T05:38:39.510Z,10.20
2024-01-07T05:39:39.649Z,14.00
2024-01-07T05:40:39.532Z,10.40
2024-01-07T05:41:39.611Z,11.60
2024-01-07T05:42:39.527Z,14.50
2024-01-07T05:43:39.661Z,10.70
2024-01-07T05:44:39.446Z,12.80
2024-01-07T05:45:39.707Z,13.10
2024-01-07T05:46:39.426Z,12.70
2024-01-07T05:47:39.693Z,11.00
2024-01-07T05:48:39.495Z,13.70
2024-01-07T05:49:39.691Z,11.80
2024-01-07T05:50:39.412Z,8.80
2024-01-07T05:51:39.645Z,10.40
2024-01-07T05:52:39.352Z,12.40
2024-01-07T05:53:39.603Z,13.10
2024-01-07T05:54:39.367Z,10.90
2024-01-07T05:55:39.438Z,11.90
2024-01-07T05:56:39.439Z,10.50
2024-01-07T05:57:39.284Z,10.70
2024-01-07T05:58:39.433Z,12.40
2024-01-07T05:59:39.245Z,12.00
2024-01-07T06:00:39.470Z,12.40
2024-01-07T06:01:39.284Z,14.20
2024-01-07T06:02:39.499Z,9.30
2024-01-07T06:03:39.381Z,13.70
2024-01-07T06:04:39.479Z,10.20
2024-01-07T06:05:39.200Z,9.90
2024-01-07T06:06:39.566Z,11.20
2024-01-07T06:07:39.322Z,11.70
2024-01-07T06:08:39.466Z,10.50
2024-01-07T06:09:39.150Z,12.30
2024-01-07T06:10:39.431Z,11.20
2024-01-07T06:11:39.097Z,10.90
2024-01-07T06:12:39.293Z,9.10
2024-01-07T06:13:39.126Z,10.30
2024-01-07T06:14:39.376Z,13.00
2024-01-07T06:15:39.119Z,10.20
2024-01-07T06:16:39.178Z,13.50
2024-01-07T06:17:39.084Z,12.00
2024-01-07T06:18:39.439Z,10.20
2024-01-07T06:19:39.103Z,13.20
2024-01-07T06:20:39.184Z,12.50
2024-01-07T06:21:38.998Z,13.10
2024-01-07T06:22:39.212Z,11.00
2024-01-07T06:23:38.951Z,11.90
2024-01-07T06:24:39.241Z,11.10
2024-01-07T06:25:38.968Z,9.60
2024-01-07T06:26:39.215Z,13.40
2024-01-07T06:27:38.921Z,9.70
2024-01-07T06:28:39.045Z,12.30
2024-01-07T06:29:38.860Z,9.40
2024-01-07T06:30:39.203Z,10.80
2024-01-07T06:31:38.945Z,10.70
2024-01-07T06:32:39.137Z,11.50
2024-01-07T06:33:39.014Z,12.60
2024-01-07T06:34:39.157Z,14.10
2024-01-07T06:35:38.816Z,9.40
2024-01-07T06:36:39.117Z,11.20
2024-01-07T06:37:38.771Z,14.90
2024-01-07T06:38:38.916Z,11.00
2024-01-07T06:39:38.792Z,10.90
2024-01-07T06:40:39.005Z,9.60
2024-01-07T06:41:38.721Z,12.70
2024-01-07T06:42:38.978Z,14.20
2024-01-07T06:43:38.680Z,10.60
2024-01-07T06:44:38.942Z,14.20
2024-01-07T06:45:38.703Z,10.90
2024-01-07T06:46:38.910Z,14.40
2024-01-07T06:47:38.688Z,12.80
2024-01-07T06:48:40.446Z,11.70
2024-01-07T06:49:38.713Z,11.60
2024-01-07T06:50:38.792Z,13.10
2024-01-07T06:51:38.627Z,12.50
2024-01-07T06:52:38.909Z,15.60
2024-01-07T06:53:38.576Z,12.30
2024-01-07T06:54:38.837Z,11.20
2024-01-07T06:55:38.831Z,9.40
2024-01-07T06:56:38.569Z,17.00
2024-01-07T06:57:38.920Z,11.70
2024-01-07T06:58:38.537Z,11.70
2024-01-07T06:59:38.667Z,14.00
2024-01-07T07:00:38.794Z,9.40
2024-01-07T07:01:38.506Z,9.80
2024-01-07T07:02:38.721Z,14.10
2024-01-07T07:03:38.563Z,11.40
2024-01-07T07:04:38.700Z,12.30
2024-01-07T07:05:38.440Z,11.70
2024-01-07T07:06:38.670Z,13.10
2024-01-07T07:07:38.396Z,13.40
2024-01-07T07:08:38.745Z,11.00
2024-01-07T07:09:38.473Z,12.00
2024-01-07T07:10:38.532Z,12.90
2024-01-07T07:11:38.522Z,12.40
2024-01-07T07:12:38.390Z,9.40
2024-01-07T07:13:38.614Z,10.30
2024-01-07T07:14:38.389Z,12.60
2024-01-07T07:15:38.594Z,11.30
2024-01-07T07:16:38.301Z,12.00
2024-01-07T07:17:38.681Z,11.30
2024-01-07T07:18:39.143Z,12.40
2024-01-07T07:19:40.066Z,10.90
2024-01-07T07:20:38.326Z,11.90
2024-01-07T07:21:38.541Z,13.90
2024-01-07T07:22:38.238Z,13.40
2024-01-07T07:23:38.513Z,12.80
2024-01-07T07:24:38.228Z,11.60
2024-01-07T07:25:38.355Z,9.90
2024-01-07T07:26:38.170Z,11.20
2024-01-07T07:27:38.410Z,10.70
2024-01-07T07:28:38.171Z,15.10
2024-01-07T07:29:38.346Z,9.20
2024-01-07T07:30:38.226Z,12.90
2024-01-07T07:31:38.607Z,10.50
2024-01-07T07:32:38.118Z,10.00
2024-01-07T07:33:38.388Z,14.60
2024-01-07T07:34:38.174Z,12.30
2024-01-07T07:35:38.270Z,12.40
2024-01-07T07:36:38.141Z,11.00
2024-01-07T07:37:38.305Z,15.10
2024-01-07T07:38:38.047Z,13.40
2024-01-07T07:39:38.161Z,17.10
2024-01-07T07:40:38.014Z,11.40
2024-01-07T07:41:38.172Z,12.90
2024-01-07T07:42:38.030Z,12.20
2024-01-07T07:43:38.214Z,10.30
2024-01-07T07:44:37.969Z,12.10
2024-01-07T07:45:38.225Z,11.00
2024-01-07T07:46:37.944Z,12.40
2024-01-07T07:47:38.281Z,12.80
2024-01-07T07:48:38.011Z,10.30
2024-01-07T07:49:38.385Z,13.40
2024-01-07T07:50:37.869Z,13.20
2024-01-07T07:51:37.999Z,11.90
2024-01-07T07:52:37.874Z,12.30
2024-01-07T07:53:38.056Z,13.00
2024-01-07T07:54:37.863Z,14.10
2024-01-07T07:55:38.021Z,15.40
2024-01-07T07:56:37.818Z,9.30
2024-01-07T07:57:38.071Z,10.60
2024-01-07T07:58:37.778Z,11.80
2024-01-07T07:59:37.968Z,11.00
2024-01-07T08:00:38.018Z,14.20
2024-01-07T08:01:38.074Z,11.40
2024-01-07T08:02:37.763Z,13.80
2024-01-07T08:03:38.172Z,12.40
2024-01-07T08:04:37.790Z,12.80
2024-01-07T08:05:37.913Z,14.00
2024-01-07T08:06:37.750Z,14.70
2024-01-07T08:07:37.914Z,12.10
2024-01-07T08:08:37.667Z,14.70
2024-01-07T08:09:38.020Z,14.20
2024-01-07T08:10:37.648Z,17.30
2024-01-07T08:11:40.467Z,9.00
2024-01-07T08:12:37.705Z,15.30
2024-01-07T08:13:37.848Z,13.30
2024-01-07T08:14:37.596Z,14.30
2024-01-07T08:15:37.708Z,12.10
2024-01-07T08:16:37.558Z,13.70
2024-01-07T08:17:37.768Z,12.20
2024-01-07T08:18:37.694Z,11.80
2024-01-07T08:19:37.758Z,11.60
2024-01-07T08:20:37.560Z,11.10
2024-01-07T08:21:37.737Z,10.20
2024-01-07T08:22:37.485Z,14.00
2024-01-07T08:23:37.673Z,15.00
2024-01-07T08:24:37.520Z,12.40
2024-01-07T08:25:38.522Z,13.10
2024-01-07T08:26:37.455Z,14.30
2024-01-07T08:27:37.546Z,14.80
2024-01-07T08:28:37.416Z,14.30
2024-01-07T08:29:37.577Z,12.50
2024-01-07T08:30:37.434Z,11.80
2024-01-07T08:31:37.590Z,16.40
2024-01-07T08:32:37.407Z,14.80
2024-01-07T08:33:37.703Z,16.60
2024-01-07T08:34:37.450Z,14.70
2024-01-07T08:35:37.570Z,13.30
2024-01-07T08:36:37.382Z,14.10
2024-01-07T08:37:37.378Z,10.90
2024-01-07T08:38:37.315Z,14.00
2024-01-07T08:39:37.560Z,13.50
2024-01-07T08:40:37.281Z,12.60
2024-01-07T08:41:37.527Z,12.60
2024-01-07T08:42:37.277Z,12.60
2024-01-07T08:43:37.341Z,12.60
2024-01-07T08:44:37.214Z,12.20
2024-01-07T08:45:37.379Z,12.50
2024-01-07T08:46:37.218Z,13.50
2024-01-07T08:47:40.659Z,11.80
2024-01-07T08:48:37.406Z,11.30
2024-01-07T08:49:37.375Z,11.20
2024-01-07T08:50:37.143Z,12.90
2024-01-07T08:51:37.515Z,9.00
2024-01-07T08:52:37.195Z,10.80
2024-01-07T08:53:37.497Z,13.70
2024-01-07T08:54:37.195Z,14.20
2024-01-07T08:55:37.242Z,9.70
2024-01-07T08:56:37.056Z,11.40
2024-01-07T08:57:37.357Z,13.30
2024-01-07T08:58:37.019Z,14.90
2024-01-07T08:59:37.144Z,13.00
2024-01-07T09:00:37.165Z,8.50
2024-01-07T09:01:37.198Z,13.00
2024-01-07T09:02:39.555Z,11.20
2024-01-07T09:03:38.170Z,13.70
2024-01-07T09:04:36.991Z,12.20
2024-01-07T09:05:37.201Z,9.30
2024-01-07T09:06:36.945Z,10.80
2024-01-07T09:07:37.208Z,11.30
2024-01-07T09:08:36.926Z,10.40
2024-01-07T09:09:37.129Z,10.60
2024-01-07T09:10:36.911Z,9.70
2024-01-07T09:11:37.033Z,10.90
2024-01-07T09:12:36.888Z,12.90
2024-01-07T09:13:37.012Z,10.00
2024-01-07T09:14:37.093Z,10.30
2024-01-07T09:15:36.913Z,12.40
2024-01-07T09:17:37.677Z,13.30
2024-01-07T09:18:38.522Z,13.30
2024-01-07T09:19:38.704Z,12.20
2024-01-07T09:20:38.458Z,11.80
2024-01-07T09:21:38.613Z,13.90
2024-01-07T09:22:38.418Z,12.30
2024-01-07T09:23:38.549Z,13.50
2024-01-07T09:24:38.408Z,11.80
2024-01-07T09:25:38.608Z,17.00
2024-01-07T09:26:38.355Z,12.20
2024-01-07T09:27:38.594Z,12.20
2024-01-07T09:28:38.359Z,10.80
2024-01-07T09:29:38.388Z,10.70
2024-01-07T09:30:38.401Z,12.30
2024-01-07T09:31:38.513Z,10.80
2024-01-07T09:32:38.737Z,12.10
2024-01-07T09:33:38.499Z,11.60
2024-01-07T09:34:38.346Z,11.20
2024-01-07T09:35:38.473Z,12.60
2024-01-07T09:36:38.307Z,9.20
2024-01-07T09:37:38.582Z,10.60
2024-01-07T09:38:38.338Z,10.40
2024-01-07T09:39:38.278Z,12.20
2024-01-07T09:40:38.386Z,9.90
2024-01-07T09:41:38.434Z,10.30
2024-01-07T09:42:38.228Z,11.90
2024-01-07T09:43:38.605Z,17.50
2024-01-07T09:44:38.158Z,23.40
2024-01-07T09:45:38.290Z,24.60
2024-01-07T09:46:38.116Z,18.50
2024-01-07T09:47:38.349Z,13.20
2024-01-07T09:48:38.280Z,24.90
2024-01-07T09:49:38.403Z,15.80
2024-01-07T09:50:38.088Z,14.50
2024-01-07T09:51:38.147Z,15.60
2024-01-07T09:52:38.068Z,11.80
2024-01-07T09:53:38.215Z,9.80
2024-01-07T09:54:38.083Z,10.10
2024-01-07T09:55:38.075Z,9.80
2024-01-07T09:56:38.005Z,11.20
2024-01-07T09:57:38.123Z,12.50
2024-01-07T09:58:37.986Z,12.50
2024-01-07T09:59:38.110Z,13.50
2024-01-07T10:00:38.050Z,15.00
2024-01-07T10:01:38.237Z,12.20
2024-01-07T10:02:37.948Z,8.80
2024-01-07T10:03:38.180Z,9.90
2024-01-07T10:04:38.026Z,10.10
2024-01-07T10:05:38.046Z,12.60
2024-01-07T10:06:37.917Z,14.00
2024-01-07T10:07:37.901Z,12.80
2024-01-07T10:08:37.869Z,11.30
2024-01-07T10:09:38.031Z,10.00
2024-01-07T10:10:37.831Z,11.40
2024-01-07T10:11:37.971Z,12.70
2024-01-07T10:12:37.988Z,13.60
2024-01-07T10:13:37.773Z,12.90
2024-01-07T10:14:37.982Z,12.80
2024-01-07T10:15:37.797Z,11.30
2024-01-07T10:16:37.986Z,11.00
2024-01-07T10:17:37.772Z,8.70
2024-01-07T10:18:38.011Z,11.00
2024-01-07T10:19:37.774Z,9.00
2024-01-07T10:20:39.783Z,12.50
2024-01-07T10:21:37.720Z,10.20
2024-01-07T10:22:37.951Z,13.60
2024-01-07T10:23:37.677Z,11.40
2024-01-07T10:24:37.796Z,11.10
2024-01-07T10:25:37.636Z,11.60
2024-01-07T10:26:39.278Z,11.50
2024-01-07T10:27:37.759Z,7.80
2024-01-07T10:28:37.786Z,11.60
2024-01-07T10:29:37.612Z,11.80
2024-01-07T10:30:37.871Z,13.50
2024-01-07T10:31:37.615Z,10.40
2024-01-07T10:32:38.338Z,12.00
2024-01-07T10:33:37.564Z,9.30
2024-01-07T10:34:38.045Z,11.10
2024-01-07T10:35:37.485Z,8.40
2024-01-07T10:36:37.701Z,9.30
2024-01-07T10:37:37.456Z,10.20
2024-01-07T10:38:38.495Z,7.80
2024-01-07T10:39:37.520Z,7.00
2024-01-07T10:40:37.704Z,6.50
2024-01-07T10:41:37.661Z,11.30
2024-01-07T10:42:37.924Z,7.40
2024-01-07T10:43:37.527Z,8.60
2024-01-07T10:44:37.700Z,7.40
2024-01-07T10:45:37.462Z,9.30
2024-01-07T10:46:37.598Z,7.20
2024-01-07T10:47:37.415Z,6.90
2024-01-07T10:48:37.730Z,7.80
2024-01-07T10:49:37.401Z,7.70
2024-01-07T10:50:37.436Z,8.20
2024-01-07T10:51:37.369Z,7.30
2024-01-07T10:52:37.523Z,10.10
2024-01-07T10:53:37.266Z,7.30
2024-01-07T10:54:37.807Z,8.70
2024-01-07T10:55:37.282Z,9.60
2024-01-07T10:56:37.483Z,9.20
2024-01-07T10:57:37.315Z,8.70
2024-01-07T10:58:37.496Z,7.60
2024-01-07T10:59:37.173Z,11.70
2024-01-07T11:00:37.505Z,9.00
2024-01-07T11:01:37.242Z,11.20
2024-01-07T11:02:37.442Z,7.50
2024-01-07T11:03:37.297Z,7.80
2024-01-07T11:04:37.418Z,7.40
2024-01-07T11:05:37.321Z,8.20
2024-01-07T11:06:37.146Z,7.00
2024-01-07T11:07:37.306Z,8.30
2024-01-07T11:08:37.142Z,6.70
2024-01-07T11:09:37.336Z,7.80
2024-01-07T11:10:42.505Z,8.30
2024-01-07T11:11:37.023Z,10.70
2024-01-07T11:12:37.223Z,9.50
2024-01-07T11:13:37.090Z,7.80
2024-01-07T11:14:37.232Z,6.70
2024-01-07T11:15:36.973Z,10.80
2024-01-07T11:16:37.254Z,17.50
2024-01-07T11:17:37.132Z,10.80
2024-01-07T11:18:37.273Z,10.00
2024-01-07T11:19:37.135Z,7.50
2024-01-07T11:20:37.919Z,8.20
2024-01-07T11:21:37.137Z,8.50
2024-01-07T11:22:37.412Z,8.30
2024-01-07T11:23:37.073Z,8.80
2024-01-07T11:24:36.930Z,11.70
2024-01-07T11:25:37.077Z,7.50
2024-01-07T11:26:36.896Z,8.00
2024-01-07T11:27:37.091Z,9.00
2024-01-07T11:28:37.139Z,9.70
2024-01-07T11:29:37.059Z,8.50
2024-01-07T11:30:36.913Z,9.80
2024-01-07T11:31:37.180Z,9.10
2024-01-07T11:32:37.023Z,9.40
2024-01-07T11:33:36.855Z,7.20
2024-01-07T11:34:37.046Z,10.70
2024-01-07T11:35:36.740Z,7.40
2024-01-07T11:36:37.145Z,8.80
2024-01-07T11:37:36.804Z,10.90
2024-01-07T11:38:36.727Z,8.30
2024-01-07T11:39:36.920Z,12.10
2024-01-07T11:40:36.785Z,8.30
2024-01-07T11:41:37.150Z,5.50
2024-01-07T11:42:36.771Z,8.20
2024-01-07T11:43:36.975Z,9.80
2024-01-07T11:44:36.733Z,7.40
2024-01-07T11:45:36.902Z,7.40
2024-01-07T11:46:36.651Z,8.40
2024-01-07T11:47:36.912Z,9.50
2024-01-07T11:48:36.717Z,8.00
2024-01-07T11:49:36.925Z,10.40
2024-01-07T11:50:36.666Z,8.60
2024-01-07T11:51:37.669Z,7.90
2024-01-07T11:52:36.656Z,11.80
2024-01-07T11:53:36.901Z,9.20
2024-01-07T11:54:36.765Z,9.20
2024-01-07T11:55:37.003Z,12.80
2024-01-07T11:56:36.514Z,10.90
2024-01-07T11:57:36.756Z,10.10
2024-01-07T11:58:36.673Z,9.90
2024-01-07T11:59:36.485Z,9.50
2024-01-07T12:00:36.602Z,10.30
2024-01-07T12:01:36.468Z,7.40
2024-01-07T12:02:36.496Z,14.50
2024-01-07T12:03:36.496Z,8.00
2024-01-07T12:04:36.621Z,11.20
2024-01-07T12:05:36.438Z,10.00
2024-01-07T12:06:36.547Z,11.80
2024-01-07T12:07:36.360Z,8.30
2024-01-07T12:08:36.425Z,10.80
2024-01-07T12:09:36.475Z,10.60
2024-01-07T12:10:36.336Z,13.40
2024-01-07T12:11:36.441Z,10.40
2024-01-07T12:12:36.319Z,10.40
2024-01-07T12:13:36.587Z,11.10
2024-01-07T12:14:36.518Z,9.40
2024-01-07T12:15:36.329Z,8.50
2024-01-07T12:16:36.347Z,8.60
2024-01-07T12:17:36.312Z,8.60
2024-01-07T12:18:36.625Z,10.00
2024-01-07T12:19:36.412Z,9.50
2024-01-07T12:20:36.366Z,9.30
2024-01-07T12:21:36.200Z,11.10
2024-01-07T12:22:36.337Z,9.70
2024-01-07T12:23:36.155Z,11.10
2024-01-07T12:24:36.556Z,9.30
2024-01-07T12:25:36.119Z,11.20
2024-01-07T12:26:36.134Z,12.90
2024-01-07T12:27:36.110Z,12.60
2024-01-07T12:28:36.320Z,9.10
2024-01-07T12:29:36.350Z,11.10
2024-01-07T12:30:36.468Z,8.80
2024-01-07T12:31:36.638Z,12.50
2024-01-07T12:32:36.371Z,9.40
2024-01-07T12:33:36.181Z,9.00
2024-01-07T12:34:36.408Z,10.40
2024-01-07T12:35:36.105Z,9.10
2024-01-07T12:36:36.310Z,8.60
2024-01-07T12:37:36.106Z,7.60
2024-01-07T12:38:36.070Z,10.90
2024-01-07T12:39:36.160Z,7.50
2024-01-07T12:40:36.250Z,10.50
2024-01-07T12:41:35.994Z,10.30
2024-01-07T12:42:36.300Z,9.00
2024-01-07T12:43:36.114Z,8.50
2024-01-07T12:44:36.047Z,8.50
2024-01-07T12:45:35.987Z,6.80
2024-01-07T12:46:36.117Z,8.00
2024-01-07T12:47:35.912Z,10.00
2024-01-07T12:48:36.043Z,7.60
2024-01-07T12:49:35.902Z,10.10
2024-01-07T12:50:35.949Z,7.50
2024-01-07T12:51:35.854Z,8.50
2024-01-07T12:52:35.940Z,8.60
2024-01-07T12:53:35.771Z,6.90
2024-01-07T12:54:36.057Z,7.10
2024-01-07T12:55:35.810Z,7.60
2024-01-07T12:56:36.084Z,10.30
2024-01-07T12:57:35.770Z,11.10